Time;durP1;ratioP1;P1;durP2;ratioP2;P2;SDS_P1;SDS_P2;PMS_P1;PMS_P2;Temp;Humidity;BMP_temperature;BMP_pressure;BME280_temperature;BME280_humidity;BME280_pressure;Samples;Min_cycle;Max_cycle;Signal;HPM_P1;HPM_P2
2022/08/05 00:01:54;;;;;;;4.90;2.92;;;;;;;20.81;100.00;100440.16;7701692;23;20447;-87
2022/08/05 00:05:08;;;;;;;8.55;3.13;;;;;;;20.74;100.00;100444.56;7700454;23;20028;-87
2022/08/05 00:08:30;;;;;;;5.68;3.45;;;;;;;20.71;100.00;100447.56;7679621;23;20017;-87
2022/08/05 00:11:36;;;;;;;6.90;3.83;;;;;;;20.65;100.00;100448.34;7675167;23;20021;-88
2022/08/05 00:14:52;;;;;;;11.80;4.40;;;;;;;20.64;100.00;100449.34;7697688;23;20582;-87
2022/08/05 00:17:54;;;;;;;11.88;5.50;;;;;;;20.60;100.00;100459.44;7699694;23;20021;-88
2022/08/05 00:20:56;;;;;;;8.07;3.90;;;;;;;20.42;100.00;100459.00;7701396;23;20159;-87
2022/08/05 00:23:59;;;;;;;10.32;5.50;;;;;;;20.36;100.00;100454.50;7701145;23;20027;-87
2022/08/05 00:27:19;;;;;;;12.70;5.55;;;;;;;20.27;100.00;100468.75;7701630;23;20339;-87
2022/08/05 00:30:29;;;;;;;12.25;6.10;;;;;;;20.22;100.00;100477.19;7677075;23;20021;-87
2022/08/05 00:33:33;;;;;;;9.50;5.78;;;;;;;20.19;100.00;100477.59;7701051;23;20025;-87
2022/08/05 00:36:55;;;;;;;10.60;5.03;;;;;;;20.05;100.00;100473.16;7700044;23;20025;-88
2022/08/05 00:40:14;;;;;;;11.85;5.10;;;;;;;20.09;100.00;100456.03;7700649;23;20027;-88
2022/08/05 00:43:29;;;;;;;13.98;5.60;;;;;;;20.10;100.00;100461.13;7701103;23;20537;-88
2022/08/05 00:46:50;;;;;;;16.77;6.40;;;;;;;20.10;100.00;100447.13;7700266;23;20020;-87
2022/08/05 00:50:04;;;;;;;10.18;6.25;;;;;;;20.02;100.00;100453.31;7673461;23;20025;-88
2022/08/05 00:53:06;;;;;;;14.93;6.85;;;;;;;20.00;100.00;100448.28;7701010;23;20027;-87
2022/08/05 00:56:28;;;;;;;12.23;6.38;;;;;;;19.94;100.00;100441.13;7701575;23;20478;-87
2022/08/05 00:59:31;;;;;;;13.68;6.45;;;;;;;19.93;100.00;100451.81;7675015;23;20027;-87
2022/08/05 01:02:45;;;;;;;16.15;6.75;;;;;;;19.81;100.00;100448.03;7676326;23;20024;-87
2022/08/05 01:05:51;;;;;;;13.77;7.20;;;;;;;19.81;100.00;100445.41;7700640;23;20035;-87
2022/08/05 01:08:55;;;;;;;17.02;7.50;;;;;;;19.76;100.00;100435.44;7701324;23;20066;-87
2022/08/05 01:12:03;;;;;;;14.02;7.40;;;;;;;19.72;100.00;100424.47;7700669;23;20020;-87
2022/08/05 01:15:24;;;;;;;15.82;6.82;;;;;;;19.61;100.00;100432.00;7677905;23;20020;-87
2022/08/05 01:18:44;;;;;;;14.80;7.10;;;;;;;19.56;100.00;100433.34;7700531;23;20023;-87
2022/08/05 01:22:15;;;;;;;14.23;8.40;;;;;;;19.42;100.00;100449.91;7677467;23;20021;-87
2022/08/05 01:26:06;;;;;;;14.57;7.75;;;;;;;19.41;100.00;100455.38;7699267;23;20615;-87
2022/08/05 01:29:33;;;;;;;17.88;9.40;;;;;;;19.43;100.00;100445.47;7700074;23;20020;-87
2022/08/05 01:32:39;;;;;;;15.45;8.48;;;;;;;19.45;100.00;100441.69;7700871;23;20028;-87
2022/08/05 01:35:46;;;;;;;;;;;;;;;19.51;100.00;100435.72;7700775;23;20055;-87
2022/08/05 01:38:54;;;;;;;17.58;8.45;;;;;;;19.52;100.00;100444.41;7701334;23;19974;-87
2022/08/05 01:41:59;;;;;;;15.63;8.45;;;;;;;19.45;100.00;100451.38;7701151;23;20029;-87
2022/08/05 01:45:03;;;;;;;19.35;9.18;;;;;;;19.42;100.00;100463.03;7673420;23;20529;-87
2022/08/05 01:48:09;;;;;;;17.30;9.43;;;;;;;19.39;100.00;100471.28;7700621;23;20151;-87
2022/08/05 01:51:13;;;;;;;15.40;8.13;;;;;;;19.41;100.00;100452.75;7647948;23;20031;-87
2022/08/05 01:54:19;;;;;;;18.00;8.68;;;;;;;19.45;100.00;100433.84;7699549;23;20443;-87
2022/08/05 01:57:29;;;;;;;16.27;8.63;;;;;;;19.57;100.00;100415.78;7699996;23;20143;-87
2022/08/05 02:00:53;;;;;;;17.30;8.38;;;;;;;19.52;100.00;100394.50;7700569;23;20348;-87
2022/08/05 02:03:57;;;;;;;17.20;8.32;;;;;;;19.54;100.00;100401.22;7673809;23;20095;-87
2022/08/05 02:06:59;;;;;;;13.05;7.07;;;;;;;19.49;100.00;100418.50;7697408;23;20126;-87
2022/08/05 02:10:07;;;;;;;14.68;8.85;;;;;;;19.36;100.00;100432.28;7699155;23;20030;-87
2022/08/05 02:13:24;;;;;;;15.23;8.38;;;;;;;19.32;100.00;100441.50;7699410;23;20119;-87
2022/08/05 02:16:33;;;;;;;18.00;8.65;;;;;;;19.24;100.00;100420.59;7699662;23;20017;-87
2022/08/05 02:19:41;;;;;;;17.67;8.60;;;;;;;19.12;100.00;100407.91;7693697;23;20020;-88
2022/08/05 02:22:58;;;;;;;14.25;8.38;;;;;;;19.02;100.00;100330.47;7699637;23;20021;-89
2022/08/05 02:26:04;;;;;;;19.15;8.73;;;;;;;18.94;100.00;100339.25;7695483;23;20025;-90
2022/08/05 02:29:12;;;;;;;18.10;9.65;;;;;;;18.87;100.00;100352.25;7648938;23;20448;-90
2022/08/05 02:32:29;;;;;;;17.77;9.63;;;;;;;18.73;100.00;100339.91;7697764;23;20277;-90
2022/08/05 02:35:34;;;;;;;20.88;9.43;;;;;;;18.71;100.00;100362.91;7699354;23;20028;-90
2022/08/05 02:38:47;;;;;;;17.55;9.93;;;;;;;18.71;100.00;100387.31;7699262;23;20020;-90
2022/08/05 02:41:55;;;;;;;17.63;9.07;;;;;;;18.67;100.00;100391.25;7670142;23;20048;-89
2022/08/05 02:45:03;;;;;;;25.40;10.52;;;;;;;18.65;100.00;100385.38;7699441;23;20020;-89
2022/08/05 02:48:07;;;;;;;22.83;10.95;;;;;;;18.62;100.00;100353.47;7672111;23;20027;-91
2022/08/05 02:51:15;;;;;;;21.48;10.48;;;;;;;18.58;100.00;100336.44;7698816;23;20021;-90
2022/08/05 02:54:19;;;;;;;18.27;10.27;;;;;;;18.48;100.00;100324.44;7696878;23;20021;-90
2022/08/05 02:57:41;;;;;;;19.77;10.02;;;;;;;18.38;100.00;100302.88;7699748;23;20358;-89
2022/08/05 03:01:06;;;;;;;18.73;10.48;;;;;;;18.34;100.00;100301.63;7703685;23;20087;-89
2022/08/05 03:04:14;;;;;;;23.38;10.30;;;;;;;18.35;100.00;100302.44;7703723;23;20028;-90
2022/08/05 03:07:18;;;;;;;18.23;10.25;;;;;;;18.34;100.00;100319.16;7704548;23;20020;-90
2022/08/05 03:10:44;;;;;;;16.90;9.63;;;;;;;18.33;100.00;100325.38;7656127;23;20428;-89
2022/08/05 03:14:06;;;;;;;21.98;10.13;;;;;;;18.34;100.00;100338.31;7677126;23;20024;-89
2022/08/05 03:17:08;;;;;;;17.98;9.65;;;;;;;18.34;100.00;100351.41;7704732;23;20343;-90
2022/08/05 03:20:10;;;;;;;19.23;9.85;;;;;;;18.35;100.00;100373.19;7678044;23;20040;-90
2022/08/05 03:23:14;;;;;;;21.25;10.85;;;;;;;18.33;100.00;100388.25;7677151;23;20174;-90
2022/08/05 03:26:17;;;;;;;21.75;10.50;;;;;;;18.26;100.00;100402.09;7703948;23;20017;-90
2022/08/05 03:29:33;;;;;;;21.20;10.57;;;;;;;18.25;100.00;100410.09;7703550;23;20095;-90
2022/08/05 03:32:55;;;;;;;19.13;11.13;;;;;;;18.26;100.00;100422.19;7704073;23;20352;-90
2022/08/05 03:35:58;;;;;;;23.33;10.43;;;;;;;18.28;100.00;100407.97;7702614;23;20359;-90
2022/08/05 03:39:06;;;;;;;23.15;11.20;;;;;;;18.27;100.00;100408.13;7677004;23;20027;-90
2022/08/05 03:42:08;;;;;;;20.73;10.27;;;;;;;18.24;100.00;100414.53;7677110;23;20020;-91
2022/08/05 03:45:10;;;;;;;17.52;11.02;;;;;;;18.26;100.00;100402.09;7676743;23;20565;-91
2022/08/05 03:48:23;;;;;;;21.50;10.68;;;;;;;18.26;100.00;100391.59;7703400;23;20044;-91
2022/08/05 03:51:31;;;;;;;17.95;10.02;;;;;;;18.32;100.00;100381.41;7703587;23;20027;-90
2022/08/05 03:54:57;;;;;;;23.75;10.50;;;;;;;18.30;100.00;100374.53;7704301;23;20032;-91
2022/08/05 03:58:23;;;;;;;19.55;11.02;;;;;;;18.37;100.00;100364.16;7703816;23;20020;-91
2022/08/05 04:01:31;;;;;;;19.13;10.65;;;;;;;18.38;100.00;100365.78;7703096;23;20052;-91
2022/08/05 04:04:34;;;;;;;22.10;11.65;;;;;;;18.40;100.00;100381.34;7702982;23;20474;-91
2022/08/05 04:07:40;;;;;;;20.45;10.60;;;;;;;18.40;100.00;100381.34;7677072;23;20028;-91
2022/08/05 04:11:01;;;;;;;21.33;10.25;;;;;;;18.41;100.00;100388.19;7681040;23;20047;-91
2022/08/05 04:14:03;;;;;;;21.73;9.63;;;;;;;18.45;100.00;100399.97;7703510;23;20639;-91
2022/08/05 04:17:07;;;;;;;26.00;11.30;;;;;;;18.41;100.00;100415.25;7676644;23;20727;-91
2022/08/05 04:20:22;;;;;;;18.75;10.32;;;;;;;18.44;100.00;100416.69;7675858;23;20017;-91
2022/08/05 04:23:26;;;;;;;24.02;10.70;;;;;;;18.48;100.00;100416.19;7703220;23;20027;-91
2022/08/05 04:26:49;;;;;;;19.77;10.68;;;;;;;18.46;100.00;100412.91;7655235;23;20039;-91
2022/08/05 04:29:51;;;;;;;21.25;10.30;;;;;;;18.44;100.00;100414.06;7676367;23;20020;-91
2022/08/05 04:32:53;;;;;;;19.75;10.93;;;;;;;18.49;100.00;100424.84;7651753;23;20024;-91
2022/08/05 04:35:57;;;;;;;20.63;10.73;;;;;;;18.50;100.00;100423.84;7701998;23;20027;-91
2022/08/05 04:39:19;;;;;;;21.88;10.63;;;;;;;18.50;100.00;100421.22;7703137;23;20454;-91
2022/08/05 04:42:22;;;;;;;19.50;10.13;;;;;;;18.48;100.00;100417.97;7703352;23;20597;-91
2022/08/05 04:45:26;;;;;;;20.02;10.00;;;;;;;18.51;100.00;100423.69;7703291;23;20017;-91
2022/08/05 04:48:48;;;;;;;20.42;10.23;;;;;;;18.63;100.00;100426.72;7703033;23;20036;-91
2022/08/05 04:51:52;;;;;;;18.42;10.35;;;;;;;18.63;100.00;100428.50;7677490;23;20139;-91
2022/08/05 04:55:01;;;;;;;18.02;9.75;;;;;;;18.64;100.00;100430.94;7676450;23;20016;-90
2022/08/05 04:58:16;;;;;;;22.83;9.65;;;;;;;18.77;100.00;100434.81;7702538;23;20028;-91
2022/08/05 05:01:22;;;;;;;21.33;10.10;;;;;;;18.90;100.00;100429.78;7652271;23;20020;-91
2022/08/05 05:04:44;;;;;;;17.17;9.48;;;;;;;18.97;100.00;100432.50;7701856;23;20025;-91
2022/08/05 05:07:50;;;;;;;17.77;9.75;;;;;;;19.07;100.00;100433.06;7675943;23;20401;-91
2022/08/05 05:10:57;;;;;;;19.65;10.10;;;;;;;19.10;100.00;100407.28;7676112;23;20503;-91
2022/08/05 05:13:59;;;;;;;18.10;8.80;;;;;;;19.20;100.00;100409.63;7703636;23;20317;-91
2022/08/05 05:17:02;;;;;;;18.30;8.85;;;;;;;19.24;100.00;100417.97;7702058;23;20024;-91
2022/08/05 05:20:11;;;;;;;16.92;9.85;;;;;;;19.32;100.00;100423.13;7702892;23;20020;-91
2022/08/05 05:23:13;;;;;;;16.10;8.38;;;;;;;19.35;100.00;100420.13;7702005;23;20017;-91
2022/08/05 05:26:20;;;;;;;13.45;8.13;;;;;;;19.36;100.00;100424.41;7703088;23;20020;-91
2022/08/05 05:29:34;;;;;;;13.75;7.93;;;;;;;19.35;100.00;100439.34;7678058;23;20024;-91
2022/08/05 05:32:56;;;;;;;13.80;7.63;;;;;;;19.34;100.00;100452.63;7676527;23;20031;-91
2022/08/05 05:36:05;;;;;;;14.75;7.03;;;;;;;19.37;100.00;100453.09;7702945;23;20029;-90
2022/08/05 05:39:06;;;;;;;12.23;7.07;;;;;;;19.42;100.00;100449.91;7676141;23;20031;-90
2022/08/05 05:42:11;;;;;;;12.50;6.85;;;;;;;19.35;100.00;100444.59;7676362;23;20051;-90
2022/08/05 05:45:14;;;;;;;12.48;7.05;;;;;;;19.31;100.00;100447.75;7703460;23;20046;-90
2022/08/05 05:48:16;;;;;;;9.38;6.18;;;;;;;19.27;100.00;100449.09;7701720;23;20347;-90
2022/08/05 05:51:27;;;;;;;15.05;6.43;;;;;;;19.30;100.00;100449.56;7701975;23;20447;-91
2022/08/05 05:54:49;;;;;;;11.48;6.15;;;;;;;19.33;100.00;100448.41;7702017;23;20147;-90
2022/08/05 05:57:54;;;;;;;13.57;5.78;;;;;;;19.37;100.00;100470.66;7702518;23;20066;-90
2022/08/05 06:01:02;;;;;;;13.07;6.25;;;;;;;19.20;100.00;100479.69;7702756;23;20543;-89
2022/08/05 06:04:15;;;;;;;12.65;5.95;;;;;;;18.90;100.00;100496.16;7701627;23;20026;-89
2022/08/05 06:07:17;;;;;;;12.95;5.65;;;;;;;18.65;100.00;100526.16;7700482;23;20451;-89
2022/08/05 06:10:39;;;;;;;11.55;5.65;;;;;;;18.46;100.00;100551.03;7675452;23;20031;-89
2022/08/05 06:13:53;;;;;;;16.80;6.70;;;;;;;18.24;100.00;100589.28;7700772;23;20020;-88
2022/08/05 06:16:56;;;;;;;14.18;7.03;;;;;;;18.00;100.00;100596.22;7700255;23;20024;-89
2022/08/05 06:19:59;;;;;;;17.50;7.30;;;;;;;17.73;100.00;100489.22;7673864;23;20028;-88
2022/08/05 06:23:01;;;;;;;18.25;7.38;;;;;;;17.71;100.00;100472.88;7700808;23;20023;-88
2022/08/05 06:26:04;;;;;;;19.55;7.35;;;;;;;17.76;100.00;100496.75;7700120;23;20031;-88
2022/08/05 06:29:22;;;;;;;12.43;6.82;;;;;;;17.82;100.00;100498.72;7700739;23;20130;-87
2022/08/05 06:32:45;;;;;;;12.25;7.40;;;;;;;17.83;100.00;100493.31;7699955;23;20127;-86
2022/08/05 06:35:47;;;;;;;12.57;6.97;;;;;;;17.84;100.00;100468.78;7701680;23;20390;-86
2022/08/05 06:39:09;;;;;;;15.07;7.03;;;;;;;17.86;100.00;100452.88;7702887;23;20023;-86
2022/08/05 06:42:15;;;;;;;16.35;6.82;;;;;;;17.90;100.00;100451.56;7703312;23;20023;-86
2022/08/05 06:45:22;;;;;;;14.13;7.25;;;;;;;17.99;100.00;100452.34;7703136;23;20028;-87
2022/08/05 06:48:44;;;;;;;12.60;6.93;;;;;;;18.00;100.00;100449.53;7704213;23;20027;-87
2022/08/05 06:51:59;;;;;;;17.60;7.95;;;;;;;18.03;100.00;100432.66;7704532;23;20024;-88
2022/08/05 06:55:01;;;;;;;14.80;7.32;;;;;;;18.05;100.00;100422.84;7677262;23;20020;-87
2022/08/05 06:58:03;;;;;;;9.85;7.10;;;;;;;18.11;100.00;100426.56;7704181;23;20470;-88
2022/08/05 07:01:25;;;;;;;15.50;6.97;;;;;;;18.13;100.00;100427.22;7704397;23;20249;-89
2022/08/05 07:04:33;;;;;;;31.80;8.32;;;;;;;18.23;100.00;100431.22;7704385;23;20415;-88
2022/08/05 07:07:38;;;;;;;15.18;7.35;;;;;;;18.29;100.00;100443.66;7703462;23;20047;-88
2022/08/05 07:10:44;;;;;;;13.25;7.80;;;;;;;18.22;100.00;100457.63;7704026;23;20064;-88
2022/08/05 07:17:21;;;;;;;13.82;7.22;;;;;;;18.12;100.00;100460.47;7703454;23;20250;-87
2022/08/05 07:20:43;;;;;;;12.63;6.80;;;;;;;18.10;100.00;100467.66;7680341;23;20400;-87
2022/08/05 07:23:45;;;;;;;10.00;5.78;;;;;;;18.15;100.00;100475.81;7702959;23;20024;-87
2022/08/05 07:26:51;;;;;;;10.15;6.20;;;;;;;18.16;100.00;100472.22;7703529;23;20438;-87
2022/08/05 07:29:56;;;;;;;10.80;6.03;;;;;;;18.30;100.00;100489.81;7702990;23;20364;-87
2022/08/05 07:33:20;;;;;;;10.10;6.15;;;;;;;18.05;100.00;100485.69;7700709;23;20355;-87
2022/08/05 07:36:38;;;;;;;10.40;6.40;;;;;;;18.13;100.00;100488.28;7701094;23;20027;-87
2022/08/05 07:39:40;;;;;;;9.52;6.13;;;;;;;18.14;100.00;100473.41;7702192;23;20445;-88
2022/08/05 07:43:02;;;;;;;13.55;7.28;;;;;;;18.20;100.00;100476.13;7679752;23;20024;-88
2022/08/05 07:46:21;;;;;;;14.60;6.85;;;;;;;17.94;100.00;100496.56;7701452;23;20020;-87
2022/08/05 07:49:26;;;;;;;12.45;6.70;;;;;;;17.64;100.00;100489.28;7702018;23;20032;-88
2022/08/05 07:52:29;;;;;;;9.82;6.40;;;;;;;17.59;100.00;100488.16;7674860;23;20024;-87
2022/08/05 07:55:32;;;;;;;13.07;7.03;;;;;;;17.56;100.00;100480.59;7676563;23;20028;-88
2022/08/05 07:58:53;;;;;;;13.43;6.63;;;;;;;17.72;100.00;100472.72;7703242;23;20087;-87
2022/08/05 08:02:01;;;;;;;13.32;6.55;;;;;;;18.16;100.00;100443.41;7677149;23;20091;-87
2022/08/05 08:05:04;;;;;;;16.48;7.20;;;;;;;18.58;100.00;100434.25;7675852;23;20021;-87
2022/08/05 08:08:06;;;;;;;11.50;6.90;;;;;;;18.94;100.00;100452.84;7701418;23;20490;-88
2022/08/05 08:11:14;;;;;;;8.18;5.57;;;;;;;19.29;100.00;100457.63;7700991;23;20423;-89
2022/08/05 08:14:16;;;;;;;13.38;6.70;;;;;;;19.61;100.00;100468.75;7675281;23;20074;-89
2022/08/05 08:17:20;;;;;;;12.07;5.82;;;;;;;19.48;100.00;100464.97;7703105;23;20021;-90
2022/08/05 08:20:28;;;;;;;9.88;6.43;;;;;;;19.32;100.00;100459.88;7701235;23;20093;-89
2022/08/05 08:23:50;;;;;;;8.95;6.35;;;;;;;19.04;100.00;100476.22;7702283;23;20454;-90
2022/08/05 08:27:06;;;;;;;9.40;5.90;;;;;;;18.81;100.00;100467.56;7678254;23;20426;-90
2022/08/05 08:30:10;;;;;;;10.30;6.00;;;;;;;18.87;100.00;100459.78;7700007;23;20420;-90
2022/08/05 08:33:30;;;;;;;8.32;6.32;;;;;;;19.22;100.00;100477.69;7679304;23;20032;-90
2022/08/05 08:36:38;;;;;;;9.38;7.40;;;;;;;19.19;100.00;100497.25;7677350;23;20058;-91
2022/08/05 08:39:55;;;;;;;10.55;7.60;;;;;;;19.06;100.00;100502.28;7701991;23;20095;-92
2022/08/05 08:42:58;;;;;;;7.25;6.47;;;;;;;19.08;100.00;100495.88;7702858;23;20030;-91
2022/08/05 08:46:21;;;;;;;8.70;5.82;;;;;;;19.30;100.00;100496.81;7701469;23;20020;-91
2022/08/05 08:49:24;;;;;;;8.45;6.80;;;;;;;19.31;100.00;100495.00;7676329;23;20020;-91
2022/08/05 08:52:52;;;;;;;8.43;6.47;;;;;;;19.32;100.00;100518.44;7674793;23;20032;-91
2022/08/05 08:55:54;;;;;;;7.80;5.60;;;;;;;19.31;100.00;100526.50;7675959;23;20021;-92
2022/08/05 08:59:05;;;;;;;7.20;5.78;;;;;;;19.34;100.00;100526.13;7701376;23;20047;-92
2022/08/05 09:02:20;;;;;;;7.80;6.30;;;;;;;19.36;100.00;100516.28;7674415;23;20017;-92
2022/08/05 09:05:27;;;;;;;10.90;6.13;;;;;;;19.35;100.00;100533.84;7676668;23;20091;-92
2022/08/05 09:08:49;;;;;;;9.18;6.65;;;;;;;19.20;100.00;100535.59;7700340;23;20363;-92
2022/08/05 09:11:51;;;;;;;10.98;6.25;;;;;;;19.17;100.00;100541.22;7675277;23;20017;-92
2022/08/05 09:14:57;;;;;;;7.72;4.97;;;;;;;19.10;100.00;100551.59;7674626;23;20430;-92
2022/08/05 09:18:09;;;;;;;8.38;5.07;;;;;;;19.23;100.00;100550.16;7700187;23;20359;-92
2022/08/05 09:21:14;;;;;;;7.95;5.80;;;;;;;19.18;100.00;100552.50;7701523;23;20410;-93
2022/08/05 09:24:39;;;;;;;7.40;4.65;;;;;;;19.07;100.00;100546.69;7702727;23;20035;-93
2022/08/05 09:27:42;;;;;;;6.82;4.40;;;;;;;19.09;100.00;100549.97;7701341;23;20020;-92
2022/08/05 09:31:08;;;;;;;7.75;4.57;;;;;;;19.09;100.00;100549.97;7703212;23;20024;-92
2022/08/05 09:34:50;;;;;;;8.27;4.55;;;;;;;18.88;100.00;100558.50;7676001;23;20143;-92
2022/08/05 09:37:53;;;;;;;6.43;4.30;;;;;;;18.70;100.00;100561.34;7702360;23;20053;-92
2022/08/05 09:41:15;;;;;;;5.90;4.80;;;;;;;18.68;100.00;100563.34;7701778;23;20031;-92
2022/08/05 09:44:40;;;;;;;6.15;4.68;;;;;;;18.81;100.00;100567.25;7701616;23;20021;-93
2022/08/05 09:47:45;;;;;;;6.80;4.50;;;;;;;18.94;100.00;100573.53;7676811;23;20075;-92
2022/08/05 09:51:10;;;;;;;8.25;4.55;;;;;;;19.20;100.00;100563.66;7676013;23;20028;-91
2022/08/05 09:54:31;;;;;;;5.07;3.88;;;;;;;19.67;100.00;100567.81;7678941;23;20024;-92
2022/08/05 09:57:46;;;;;;;6.30;3.20;;;;;;;19.92;100.00;100566.59;7681107;23;20351;-92
2022/08/05 10:00:58;;;;;;;4.65;2.42;;;;;;;20.19;100.00;100570.38;7702061;23;20542;-92
2022/08/05 10:04:11;;;;;;;4.90;2.38;;;;;;;20.09;100.00;100567.22;7703075;23;20031;-91
2022/08/05 10:07:15;;;;;;;4.22;2.55;;;;;;;20.04;100.00;100574.03;7651203;23;20044;-92
2022/08/05 10:10:37;;;;;;;4.47;2.28;;;;;;;19.91;100.00;100572.03;7679479;23;20400;-91
2022/08/05 10:13:42;;;;;;;4.30;2.28;;;;;;;19.79;100.00;100572.47;7675292;23;20012;-91
2022/08/05 10:16:51;;;;;;;2.90;2.58;;;;;;;19.73;100.00;100575.03;7702663;23;20387;-91
2022/08/05 10:19:57;;;;;;;3.92;2.10;;;;;;;19.53;100.00;100572.88;7676144;23;20025;-91
2022/08/05 10:23:40;;;;;;;4.40;2.35;;;;;;;19.42;100.00;100575.13;7675489;23;20024;-91
2022/08/05 10:27:01;;;;;;;4.82;2.50;;;;;;;19.34;100.00;100594.38;7525960;23;20117;-91
2022/08/05 10:30:04;;;;;;;4.72;2.50;;;;;;;19.19;100.00;100659.94;7549412;23;20363;-91
2022/08/05 10:33:32;;;;;;;5.75;3.03;;;;;;;18.75;100.00;100670.97;7550001;23;20105;-91
2022/08/05 10:36:37;;;;;;;5.90;3.10;;;;;;;18.47;100.00;100595.41;7550363;23;20041;-90
2022/08/05 10:39:43;;;;;;;6.13;3.15;;;;;;;18.36;100.00;100642.13;7526063;23;20111;-90
2022/08/05 10:43:33;;;;;;;4.22;3.30;;;;;;;18.35;100.00;100630.00;7526004;23;20032;-89
2022/08/05 10:46:47;;;;;;;3.13;2.78;;;;;;;18.24;100.00;100652.97;7529586;23;20638;-90
2022/08/05 10:50:17;;;;;;;5.65;3.58;;;;;;;18.12;100.00;100656.94;7550864;23;20158;-90
2022/08/05 10:53:40;;;;;;;6.88;3.60;;;;;;;18.10;100.00;100653.66;7551716;23;20042;-90
2022/08/05 10:56:48;;;;;;;4.63;3.72;;;;;;;18.16;100.00;100653.00;7550612;23;20161;-91
2022/08/05 11:00:17;;;;;;;5.53;3.50;;;;;;;18.31;100.00;100658.38;7528554;23;20469;-91
2022/08/05 11:03:21;;;;;;;5.50;3.90;;;;;;;18.45;100.00;100659.47;7647842;23;20029;-91
2022/08/05 11:06:28;;;;;;;8.32;4.57;;;;;;;18.62;100.00;100657.59;7674040;23;20458;-91
2022/08/05 11:09:50;;;;;;;5.35;3.67;;;;;;;18.81;100.00;100654.59;7700656;23;20056;-92
2022/08/05 11:13:40;;;;;;;6.68;3.45;;;;;;;19.01;100.00;100651.53;7675039;23;20083;-93
2022/08/05 11:17:33;;;;;;;6.65;4.13;;;;;;;19.13;100.00;100663.28;7677958;23;20160;-93
2022/08/05 11:20:56;;;;;;;5.28;4.10;;;;;;;19.46;100.00;100660.41;7654159;23;20452;-93
2022/08/05 11:24:11;;;;;;;5.78;4.65;;;;;;;19.73;100.00;100662.53;7676043;23;20021;-93
2022/08/05 11:27:32;;;;;;;6.60;4.45;;;;;;;19.87;100.00;100674.03;7703429;23;20020;-94
2022/08/05 11:31:05;;;;;;;5.65;4.15;;;;;;;19.91;100.00;100677.13;7655864;23;20107;-93
2022/08/05 11:34:34;;;;;;;7.10;4.20;;;;;;;19.99;100.00;100672.59;7653349;23;20031;-93
2022/08/05 11:37:59;;;;;;;6.10;4.05;;;;;;;20.02;100.00;100679.31;7655380;23;20020;-94
2022/08/05 11:41:25;;;;;;;7.45;4.68;;;;;;;19.83;100.00;100671.97;7681793;23;20482;-93
2022/08/05 11:44:49;;;;;;;5.00;4.18;;;;;;;19.76;100.00;100674.47;7702608;23;20444;-92
2022/08/05 11:47:56;;;;;;;7.15;4.30;;;;;;;19.49;100.00;100687.13;7675855;23;20364;-92
2022/08/05 11:51:00;;;;;;;5.28;3.95;;;;;;;19.18;100.00;100696.84;7700534;23;20020;-92
2022/08/05 11:54:02;;;;;;;7.13;3.80;;;;;;;18.87;100.00;100700.28;7700859;23;20586;-90
2022/08/05 11:57:05;;;;;;;5.25;3.88;;;;;;;18.65;100.00;100701.84;7674163;23;20035;-91
2022/08/05 12:00:31;;;;;;;4.72;3.50;;;;;;;18.59;100.00;100711.19;7652997;23;20031;-91
2022/08/05 12:03:58;;;;;;;5.72;3.75;;;;;;;18.47;100.00;100734.31;7697962;23;20031;-92
2022/08/05 12:07:02;;;;;;;4.20;3.78;;;;;;;18.41;100.00;100731.53;7700134;23;20353;-91
2022/08/05 12:10:16;;;;;;;4.82;3.50;;;;;;;18.37;100.00;100743.38;7672069;23;20032;-91
2022/08/05 12:13:20;;;;;;;4.78;3.60;;;;;;;18.29;100.00;100752.88;7699402;23;20025;-91
2022/08/05 12:16:46;;;;;;;5.15;3.67;;;;;;;18.07;100.00;100745.69;7673787;23;20032;-91
2022/08/05 12:19:53;;;;;;;5.55;3.70;;;;;;;17.96;100.00;100743.41;7672839;23;20442;-92
2022/08/05 12:23:16;;;;;;;5.20;3.47;;;;;;;17.78;100.00;100754.81;7671730;23;20107;-91
2022/08/05 12:26:18;;;;;;;5.13;3.33;;;;;;;17.75;100.00;100752.53;7672381;23;20404;-91
2022/08/05 12:29:25;;;;;;;4.07;3.20;;;;;;;17.92;100.00;100766.50;7699407;23;20457;-91
2022/08/05 12:32:31;;;;;;;6.30;3.47;;;;;;;17.96;100.00;100773.03;7699112;23;20020;-91
2022/08/05 12:35:33;;;;;;;4.72;3.70;;;;;;;17.97;100.00;100774.66;7699105;23;20024;-91
2022/08/05 12:38:41;;;;;;;4.65;3.03;;;;;;;18.10;100.00;100776.78;7699267;23;20021;-91
2022/08/05 12:41:44;;;;;;;4.45;3.42;;;;;;;18.21;100.00;100780.88;7671376;23;20107;-91
2022/08/05 12:44:47;;;;;;;5.63;3.22;;;;;;;18.34;100.00;100777.78;7698787;23;20025;-91
2022/08/05 12:47:49;;;;;;;4.75;3.47;;;;;;;18.47;100.00;100789.38;7672443;23;20436;-91
2022/08/05 12:51:13;;;;;;;5.20;3.53;;;;;;;18.82;100.00;100779.50;7676349;23;20020;-90
2022/08/05 12:54:35;;;;;;;3.88;3.53;;;;;;;19.10;100.00;100793.00;7699064;23;20027;-90
2022/08/05 12:57:37;;;;;;;7.40;3.90;;;;;;;19.65;100.00;100793.88;7647275;23;20028;-90
2022/08/05 13:01:00;;;;;;;3.53;3.15;;;;;;;19.89;100.00;100782.41;7697194;23;20017;-90
2022/08/05 13:04:26;;;;;;;6.35;3.40;;;;;;;20.31;100.00;100788.13;7696722;23;20021;-90
2022/08/05 13:07:29;;;;;;;5.97;3.33;;;;;;;20.63;100.00;100787.03;7698925;23;20024;-90
2022/08/05 13:11:01;;;;;;;5.28;3.72;;;;;;;20.86;100.00;100787.75;7700148;23;20024;-89
2022/08/05 13:14:16;;;;;;;4.55;3.42;;;;;;;20.93;100.00;100779.13;7698618;23;20023;-90
2022/08/05 13:17:23;;;;;;;4.68;3.47;;;;;;;20.85;100.00;100788.75;7698644;23;20020;-90
2022/08/05 13:20:34;;;;;;;4.15;3.75;;;;;;;20.76;100.00;100786.41;7672450;23;20028;-91
2022/08/05 13:23:42;;;;;;;4.93;3.78;;;;;;;20.75;100.00;100796.09;7698242;23;20020;-90
2022/08/05 13:26:53;;;;;;;4.68;4.05;;;;;;;20.73;100.00;100790.22;7670497;23;20457;-91
2022/08/05 13:29:56;;;;;;;4.30;3.88;;;;;;;20.67;100.00;100790.94;7699025;23;20453;-91
2022/08/05 13:33:18;;;;;;;5.40;3.60;;;;;;;20.48;100.00;100789.63;7698370;23;20336;-90
2022/08/05 13:36:42;;;;;;;2.33;2.15;;;;;;;20.19;100.00;100787.75;7699590;23;20462;-90
2022/08/05 13:39:44;;;;;;;5.35;1.90;;;;;;;19.97;100.00;100795.50;7698006;23;20020;-90
2022/08/05 13:43:06;;;;;;;4.03;2.15;;;;;;;19.85;100.00;100812.66;7696059;23;20028;-91
2022/08/05 13:46:14;;;;;;;3.22;1.80;;;;;;;19.78;100.00;100823.03;7672050;23;20420;-90
2022/08/05 13:49:37;;;;;;;2.28;1.60;;;;;;;19.73;100.00;100827.19;7697055;23;20052;-90
2022/08/05 13:52:47;;;;;;;2.42;1.60;;;;;;;19.87;100.00;100834.28;7672470;23;20036;-90
2022/08/05 13:55:50;;;;;;;3.25;1.90;;;;;;;20.01;100.00;100838.00;7666550;23;20323;-89
2022/08/05 13:59:02;;;;;;;4.10;1.73;;;;;;;20.20;100.00;100836.72;7694610;23;20465;-90
2022/08/05 14:02:21;;;;;;;2.60;1.73;;;;;;;20.32;100.00;100834.47;7667316;23;20027;-89
2022/08/05 14:05:30;;;;;;;3.33;1.80;;;;;;;20.38;100.00;100841.66;7694497;23;20020;-90
2022/08/05 14:08:52;;;;;;;2.80;1.73;;;;;;;20.61;100.00;100846.88;7694029;23;20031;-89
2022/08/05 14:11:58;;;;;;;4.38;2.15;;;;;;;20.78;100.00;100835.22;7695703;23;20136;-90
2022/08/05 14:15:18;;;;;;;2.53;1.50;;;;;;;20.79;98.49;100830.75;7695144;23;20021;-89
2022/08/05 14:18:41;;;;;;;3.05;2.10;;;;;;;20.88;99.58;100844.66;7697474;23;20028;-90
2022/08/05 14:21:43;;;;;;;4.18;2.08;;;;;;;21.01;99.34;100850.09;7694805;23;20028;-90
2022/08/05 14:25:06;;;;;;;3.28;2.10;;;;;;;21.10;99.46;100856.09;7667499;23;20036;-90
2022/08/05 14:28:23;;;;;;;3.88;1.88;;;;;;;21.14;100.00;100863.44;7695734;23;20478;-90
2022/08/05 14:31:28;;;;;;;3.05;2.30;;;;;;;21.46;99.28;100858.78;7694259;23;20023;-90
2022/08/05 14:34:52;;;;;;;2.75;1.85;;;;;;;21.86;95.15;100864.50;7695215;23;20704;-90
2022/08/05 14:37:55;;;;;;;3.15;2.10;;;;;;;22.08;91.34;100862.69;7694772;23;20016;-90
2022/08/05 14:41:07;;;;;;;3.47;2.20;;;;;;;22.41;87.48;100854.28;7695872;23;20059;-91